Hovedside
METAR-TAF:

METAR-TAF

Lufthavner :

Enontekis, Finland

Enontekiö lufthavn

breddegrad: 68-21-52N, lengdegrad: 023-25-39E, høyde over havet: 308 m

Gjeldene værobservasjon

Denne rapporten ble laget for 16 minutter siden, klokken 10:20 UTC
Vind 5 kt fra Sør-sørøst, skiftende mellom Øst og Sørvest
Temperatur 12°C
Luftfuktighet 62%
Trykk 995 hPa
Sikt 10 km eller mer
Brutte skyer i en høyde av 3600 ft
Brutte skyer i en høyde av 5100 ft

METAR: EFET 251020Z AUTO 15005KT 100V220 9999 BKN036 BKN051 12/05 Q0995

Tid: 13:36 (10:36 UTC)


TAF: fraværende

Værobservasjoner og værvarsel for over 4000 flyplasser (METAR- og TAF-rapporter).

Tilgjengelige stasjoner er representert av de røde og gule prikkene på kartet.

Hold musepekeren over prikken for å se navnet på stasjonen.

Klikk så for å se værobservasjoner og -varsler.

For å forandre kartet kan du klikke på den grønne knappen med svart kryss for å zoome inn, på den grønne knappen med strek for å zoome ut, eller på de grønne pilene for å se tilstøtende kart.


METAR-TAF: